sensor_id;sensor_type;location;lat;lon;timestamp;temperature;humidity
52725;DHT22;38621;52.830;6.914;2023-04-06T00:01:38;3.30;99.90
52725;DHT22;38621;52.830;6.914;2023-04-06T00:04:04;3.20;99.90
52725;DHT22;38621;52.830;6.914;2023-04-06T00:06:30;3.20;99.90
52725;DHT22;38621;52.830;6.914;2023-04-06T00:08:56;3.20;99.90
52725;DHT22;38621;52.830;6.914;2023-04-06T00:11:22;3.20;99.90
52725;DHT22;38621;52.830;6.914;2023-04-06T00:13:48;3.20;99.90
52725;DHT22;38621;52.830;6.914;2023-04-06T00:16:13;3.20;99.90
52725;DHT22;38621;52.830;6.914;2023-04-06T00:18:39;3.20;99.90
52725;DHT22;38621;52.830;6.914;2023-04-06T00:21:05;3.10;99.90
52725;DHT22;38621;52.830;6.914;2023-04-06T00:23:31;3.10;99.90
52725;DHT22;38621;52.830;6.914;2023-04-06T00:25:57;3.10;99.90
52725;DHT22;38621;52.830;6.914;2023-04-06T00:28:23;3.00;99.90
52725;DHT22;38621;52.830;6.914;2023-04-06T00:30:52;3.00;99.90
52725;DHT22;38621;52.830;6.914;2023-04-06T00:33:19;3.00;99.90
52725;DHT22;38621;52.830;6.914;2023-04-06T00:35:45;3.00;99.90
52725;DHT22;38621;52.830;6.914;2023-04-06T00:38:12;3.00;99.90
52725;DHT22;38621;52.830;6.914;2023-04-06T00:40:38;3.00;99.90
52725;DHT22;38621;52.830;6.914;2023-04-06T00:43:06;3.00;99.90
52725;DHT22;38621;52.830;6.914;2023-04-06T00:45:32;2.90;99.90
52725;DHT22;38621;52.830;6.914;2023-04-06T00:47:58;2.90;99.90
52725;DHT22;38621;52.830;6.914;2023-04-06T00:50:24;2.90;99.90
52725;DHT22;38621;52.830;6.914;2023-04-06T00:52:50;2.90;99.90
52725;DHT22;38621;52.830;6.914;2023-04-06T00:55:17;2.80;99.90
52725;DHT22;38621;52.830;6.914;2023-04-06T00:57:43;2.80;99.90
52725;DHT22;38621;52.830;6.914;2023-04-06T01:00:09;2.80;99.90
52725;DHT22;38621;52.830;6.914;2023-04-06T01:02:35;2.80;99.90
52725;DHT22;38621;52.830;6.914;2023-04-06T01:05:02;2.80;99.90
52725;DHT22;38621;52.830;6.914;2023-04-06T01:07:27;2.70;99.90
52725;DHT22;38621;52.830;6.914;2023-04-06T01:09:56;2.70;99.90
52725;DHT22;38621;52.830;6.914;2023-04-06T01:12:22;2.60;99.90
52725;DHT22;38621;52.830;6.914;2023-04-06T01:14:48;2.50;99.90
52725;DHT22;38621;52.830;6.914;2023-04-06T01:17:14;2.50;99.90
52725;DHT22;38621;52.830;6.914;2023-04-06T01:19:40;2.40;99.90
52725;DHT22;38621;52.830;6.914;2023-04-06T01:22:06;2.30;99.90
52725;DHT22;38621;52.830;6.914;2023-04-06T01:24:33;2.30;99.90
52725;DHT22;38621;52.830;6.914;2023-04-06T01:26:58;2.20;99.90
52725;DHT22;38621;52.830;6.914;2023-04-06T01:29:24;2.20;99.90
52725;DHT22;38621;52.830;6.914;2023-04-06T01:31:50;2.20;99.90
52725;DHT22;38621;52.830;6.914;2023-04-06T01:34:16;2.20;99.90
52725;DHT22;38621;52.830;6.914;2023-04-06T01:36:42;2.20;99.90
52725;DHT22;38621;52.830;6.914;2023-04-06T01:39:07;2.20;99.90
52725;DHT22;38621;52.830;6.914;2023-04-06T01:41:33;2.20;99.90
52725;DHT22;38621;52.830;6.914;2023-04-06T01:43:59;2.20;99.90
52725;DHT22;38621;52.830;6.914;2023-04-06T01:46:25;2.20;99.90
52725;DHT22;38621;52.830;6.914;2023-04-06T01:48:51;2.10;99.90
52725;DHT22;38621;52.830;6.914;2023-04-06T01:51:17;2.10;99.90
52725;DHT22;38621;52.830;6.914;2023-04-06T01:53:43;2.10;99.90
52725;DHT22;38621;52.830;6.914;2023-04-06T01:56:09;2.10;99.90
52725;DHT22;38621;52.830;6.914;2023-04-06T01:58:34;2.10;99.90
52725;DHT22;38621;52.830;6.914;2023-04-06T02:01:00;2.00;99.90
52725;DHT22;38621;52.830;6.914;2023-04-06T02:03:26;2.00;99.90
52725;DHT22;38621;52.830;6.914;2023-04-06T02:05:52;2.00;99.90
52725;DHT22;38621;52.830;6.914;2023-04-06T02:08:18;1.90;99.90
52725;DHT22;38621;52.830;6.914;2023-04-06T02:10:44;1.80;99.90
52725;DHT22;38621;52.830;6.914;2023-04-06T02:13:09;1.70;99.90
52725;DHT22;38621;52.830;6.914;2023-04-06T02:15:35;1.70;99.90
52725;DHT22;38621;52.830;6.914;2023-04-06T02:18:01;1.70;99.90
52725;DHT22;38621;52.830;6.914;2023-04-06T02:20:26;1.70;99.90
52725;DHT22;38621;52.830;6.914;2023-04-06T02:22:52;1.60;99.90
52725;DHT22;38621;52.830;6.914;2023-04-06T02:25:18;1.50;99.90
52725;DHT22;38621;52.830;6.914;2023-04-06T02:27:43;1.50;99.90
52725;DHT22;38621;52.830;6.914;2023-04-06T02:30:10;1.40;99.90
52725;DHT22;38621;52.830;6.914;2023-04-06T02:32:35;1.40;99.90
52725;DHT22;38621;52.830;6.914;2023-04-06T02:35:01;1.40;99.90
52725;DHT22;38621;52.830;6.914;2023-04-06T02:37:27;1.40;99.90
52725;DHT22;38621;52.830;6.914;2023-04-06T02:39:53;1.40;99.90
52725;DHT22;38621;52.830;6.914;2023-04-06T02:42:18;1.40;99.90
52725;DHT22;38621;52.830;6.914;2023-04-06T02:44:44;1.40;99.90
52725;DHT22;38621;52.830;6.914;2023-04-06T02:47:10;1.30;99.90
52725;DHT22;38621;52.830;6.914;2023-04-06T02:49:36;1.20;99.90
52725;DHT22;38621;52.830;6.914;2023-04-06T02:52:02;1.30;99.90
52725;DHT22;38621;52.830;6.914;2023-04-06T02:54:28;1.20;99.90
52725;DHT22;38621;52.830;6.914;2023-04-06T02:56:54;1.30;99.90
52725;DHT22;38621;52.830;6.914;2023-04-06T02:59:20;1.30;99.90
52725;DHT22;38621;52.830;6.914;2023-04-06T03:01:46;1.30;99.90
52725;DHT22;38621;52.830;6.914;2023-04-06T03:04:11;1.50;99.90
52725;DHT22;38621;52.830;6.914;2023-04-06T03:06:37;1.30;99.90
52725;DHT22;38621;52.830;6.914;2023-04-06T03:09:03;1.20;99.90
52725;DHT22;38621;52.830;6.914;2023-04-06T03:11:28;1.20;99.90
52725;DHT22;38621;52.830;6.914;2023-04-06T03:13:54;1.20;99.90
52725;DHT22;38621;52.830;6.914;2023-04-06T03:16:20;1.20;99.90
52725;DHT22;38621;52.830;6.914;2023-04-06T03:18:46;1.20;99.90
52725;DHT22;38621;52.830;6.914;2023-04-06T03:21:13;1.10;99.90
52725;DHT22;38621;52.830;6.914;2023-04-06T03:23:41;1.10;99.90
52725;DHT22;38621;52.830;6.914;2023-04-06T03:26:06;1.20;99.90
52725;DHT22;38621;52.830;6.914;2023-04-06T03:28:32;1.30;99.90
52725;DHT22;38621;52.830;6.914;2023-04-06T03:30:58;1.20;99.90
52725;DHT22;38621;52.830;6.914;2023-04-06T03:33:24;1.20;99.90
52725;DHT22;38621;52.830;6.914;2023-04-06T03:35:53;1.20;99.90
52725;DHT22;38621;52.830;6.914;2023-04-06T03:38:19;1.20;99.90
52725;DHT22;38621;52.830;6.914;2023-04-06T03:40:45;1.20;99.90
52725;DHT22;38621;52.830;6.914;2023-04-06T03:43:11;1.20;99.90
52725;DHT22;38621;52.830;6.914;2023-04-06T03:45:37;1.20;99.90
52725;DHT22;38621;52.830;6.914;2023-04-06T03:48:03;1.10;99.90
52725;DHT22;38621;52.830;6.914;2023-04-06T03:50:29;1.10;99.90
52725;DHT22;38621;52.830;6.914;2023-04-06T03:52:54;1.00;99.90
52725;DHT22;38621;52.830;6.914;2023-04-06T03:55:20;1.00;99.90
52725;DHT22;38621;52.830;6.914;2023-04-06T03:57:46;1.00;99.90
52725;DHT22;38621;52.830;6.914;2023-04-06T04:00:12;0.90;99.90
52725;DHT22;38621;52.830;6.914;2023-04-06T04:02:38;0.90;99.90
52725;DHT22;38621;52.830;6.914;2023-04-06T04:05:04;0.90;99.90
52725;DHT22;38621;52.830;6.914;2023-04-06T04:07:30;0.90;99.90
52725;DHT22;38621;52.830;6.914;2023-04-06T04:09:56;0.80;99.90
52725;DHT22;38621;52.830;6.914;2023-04-06T04:12:22;0.80;99.90
52725;DHT22;38621;52.830;6.914;2023-04-06T04:14:47;0.90;99.90
52725;DHT22;38621;52.830;6.914;2023-04-06T04:17:13;1.00;99.90
52725;DHT22;38621;52.830;6.914;2023-04-06T04:19:39;1.00;99.90
52725;DHT22;38621;52.830;6.914;2023-04-06T04:22:04;1.00;99.90
52725;DHT22;38621;52.830;6.914;2023-04-06T04:24:31;1.00;99.90
52725;DHT22;38621;52.830;6.914;2023-04-06T04:26:57;1.00;99.90
52725;DHT22;38621;52.830;6.914;2023-04-06T04:29:22;1.00;99.90
52725;DHT22;38621;52.830;6.914;2023-04-06T04:31:49;0.80;99.90
52725;DHT22;38621;52.830;6.914;2023-04-06T04:34:15;1.00;99.90
52725;DHT22;38621;52.830;6.914;2023-04-06T04:36:41;0.90;99.90
52725;DHT22;38621;52.830;6.914;2023-04-06T04:39:09;0.90;99.90
52725;DHT22;38621;52.830;6.914;2023-04-06T04:41:35;0.90;99.90
52725;DHT22;38621;52.830;6.914;2023-04-06T04:44:00;0.90;99.90
52725;DHT22;38621;52.830;6.914;2023-04-06T04:46:26;0.90;99.90
52725;DHT22;38621;52.830;6.914;2023-04-06T04:48:52;0.90;99.90
52725;DHT22;38621;52.830;6.914;2023-04-06T04:51:17;0.90;99.90
52725;DHT22;38621;52.830;6.914;2023-04-06T04:53:45;0.90;99.90
52725;DHT22;38621;52.830;6.914;2023-04-06T04:56:10;0.90;99.90
52725;DHT22;38621;52.830;6.914;2023-04-06T04:58:36;0.90;99.90
52725;DHT22;38621;52.830;6.914;2023-04-06T05:01:02;0.80;99.90
52725;DHT22;38621;52.830;6.914;2023-04-06T05:03:28;0.80;99.90
52725;DHT22;38621;52.830;6.914;2023-04-06T05:05:54;0.80;99.90
52725;DHT22;38621;52.830;6.914;2023-04-06T05:08:20;0.80;99.90
52725;DHT22;38621;52.830;6.914;2023-04-06T05:10:46;0.80;99.90
52725;DHT22;38621;52.830;6.914;2023-04-06T05:13:14;0.70;99.90
52725;DHT22;38621;52.830;6.914;2023-04-06T05:15:40;0.80;99.90
52725;DHT22;38621;52.830;6.914;2023-04-06T05:18:07;0.80;99.90
52725;DHT22;38621;52.830;6.914;2023-04-06T05:20:33;0.80;99.90
52725;DHT22;38621;52.830;6.914;2023-04-06T05:22:59;0.80;99.90
52725;DHT22;38621;52.830;6.914;2023-04-06T05:25:24;0.80;99.90
52725;DHT22;38621;52.830;6.914;2023-04-06T05:27:50;0.90;99.90
52725;DHT22;38621;52.830;6.914;2023-04-06T05:30:16;0.90;99.90
52725;DHT22;38621;52.830;6.914;2023-04-06T05:32:42;0.90;99.90
52725;DHT22;38621;52.830;6.914;2023-04-06T05:35:09;0.90;99.90
52725;DHT22;38621;52.830;6.914;2023-04-06T05:37:35;0.90;99.90
52725;DHT22;38621;52.830;6.914;2023-04-06T05:40:01;0.90;99.90
52725;DHT22;38621;52.830;6.914;2023-04-06T05:42:27;1.00;99.90
52725;DHT22;38621;52.830;6.914;2023-04-06T05:44:53;1.00;99.90
52725;DHT22;38621;52.830;6.914;2023-04-06T05:47:19;1.10;99.90
52725;DHT22;38621;52.830;6.914;2023-04-06T05:49:45;1.10;99.90
52725;DHT22;38621;52.830;6.914;2023-04-06T05:52:10;1.20;99.90
52725;DHT22;38621;52.830;6.914;2023-04-06T05:54:36;1.20;99.90
52725;DHT22;38621;52.830;6.914;2023-04-06T05:57:03;1.30;99.90
52725;DHT22;38621;52.830;6.914;2023-04-06T05:59:32;1.30;99.90
52725;DHT22;38621;52.830;6.914;2023-04-06T06:01:58;1.40;99.90
52725;DHT22;38621;52.830;6.914;2023-04-06T06:04:23;1.40;99.90
52725;DHT22;38621;52.830;6.914;2023-04-06T06:06:49;1.50;99.90
52725;DHT22;38621;52.830;6.914;2023-04-06T06:09:15;1.50;99.90
52725;DHT22;38621;52.830;6.914;2023-04-06T06:11:41;1.60;99.90
52725;DHT22;38621;52.830;6.914;2023-04-06T06:14:07;1.60;99.90
52725;DHT22;38621;52.830;6.914;2023-04-06T06:16:33;1.70;99.90
52725;DHT22;38621;52.830;6.914;2023-04-06T06:18:59;1.70;99.90
52725;DHT22;38621;52.830;6.914;2023-04-06T06:21:25;1.80;99.90
52725;DHT22;38621;52.830;6.914;2023-04-06T06:23:51;1.90;99.90
52725;DHT22;38621;52.830;6.914;2023-04-06T06:26:17;2.00;99.90
52725;DHT22;38621;52.830;6.914;2023-04-06T06:28:42;2.00;99.90
52725;DHT22;38621;52.830;6.914;2023-04-06T06:31:08;2.10;99.90
52725;DHT22;38621;52.830;6.914;2023-04-06T06:33:34;2.20;99.90
52725;DHT22;38621;52.830;6.914;2023-04-06T06:35:59;2.30;99.90
52725;DHT22;38621;52.830;6.914;2023-04-06T06:38:25;2.30;99.90
52725;DHT22;38621;52.830;6.914;2023-04-06T06:40:52;2.40;99.90
52725;DHT22;38621;52.830;6.914;2023-04-06T06:43:18;2.50;99.90
52725;DHT22;38621;52.830;6.914;2023-04-06T06:45:44;2.60;99.90
52725;DHT22;38621;52.830;6.914;2023-04-06T06:48:10;2.60;99.90
52725;DHT22;38621;52.830;6.914;2023-04-06T06:50:36;2.70;99.90
52725;DHT22;38621;52.830;6.914;2023-04-06T06:53:02;2.80;99.90
52725;DHT22;38621;52.830;6.914;2023-04-06T06:55:27;2.90;99.90
52725;DHT22;38621;52.830;6.914;2023-04-06T06:57:53;3.00;99.90
52725;DHT22;38621;52.830;6.914;2023-04-06T07:00:19;3.10;99.90
52725;DHT22;38621;52.830;6.914;2023-04-06T07:02:48;3.20;99.90
52725;DHT22;38621;52.830;6.914;2023-04-06T07:05:15;3.40;99.90
52725;DHT22;38621;52.830;6.914;2023-04-06T07:07:41;3.50;99.90
52725;DHT22;38621;52.830;6.914;2023-04-06T07:10:07;3.50;99.90
52725;DHT22;38621;52.830;6.914;2023-04-06T07:12:33;3.70;99.90
52725;DHT22;38621;52.830;6.914;2023-04-06T07:15:00;3.80;99.90
52725;DHT22;38621;52.830;6.914;2023-04-06T07:17:25;3.90;99.90
52725;DHT22;38621;52.830;6.914;2023-04-06T07:19:51;4.10;99.90
52725;DHT22;38621;52.830;6.914;2023-04-06T07:22:17;4.20;99.90
52725;DHT22;38621;52.830;6.914;2023-04-06T07:24:43;4.30;99.90
52725;DHT22;38621;52.830;6.914;2023-04-06T07:27:08;4.40;99.90
52725;DHT22;38621;52.830;6.914;2023-04-06T07:29:34;4.50;99.90
52725;DHT22;38621;52.830;6.914;2023-04-06T07:32:00;4.70;99.90
52725;DHT22;38621;52.830;6.914;2023-04-06T07:34:26;4.80;99.90
52725;DHT22;38621;52.830;6.914;2023-04-06T07:36:51;4.90;99.90
52725;DHT22;38621;52.830;6.914;2023-04-06T07:39:19;5.00;99.90
52725;DHT22;38621;52.830;6.914;2023-04-06T07:41:45;5.10;99.90
52725;DHT22;38621;52.830;6.914;2023-04-06T07:44:10;5.20;99.90
52725;DHT22;38621;52.830;6.914;2023-04-06T07:46:36;5.30;99.90
52725;DHT22;38621;52.830;6.914;2023-04-06T07:49:02;5.40;99.90
52725;DHT22;38621;52.830;6.914;2023-04-06T07:51:28;5.60;99.90
52725;DHT22;38621;52.830;6.914;2023-04-06T07:53:53;5.70;99.90
52725;DHT22;38621;52.830;6.914;2023-04-06T07:56:20;5.80;99.90
52725;DHT22;38621;52.830;6.914;2023-04-06T07:58:46;6.00;99.90
52725;DHT22;38621;52.830;6.914;2023-04-06T08:01:12;6.10;99.90
52725;DHT22;38621;52.830;6.914;2023-04-06T08:03:38;6.20;99.90
52725;DHT22;38621;52.830;6.914;2023-04-06T08:06:04;6.40;99.90
52725;DHT22;38621;52.830;6.914;2023-04-06T08:08:30;6.50;99.90
52725;DHT22;38621;52.830;6.914;2023-04-06T08:10:56;6.60;99.90
52725;DHT22;38621;52.830;6.914;2023-04-06T08:13:22;6.80;99.90
52725;DHT22;38621;52.830;6.914;2023-04-06T08:15:47;7.00;99.90
52725;DHT22;38621;52.830;6.914;2023-04-06T08:18:13;7.10;99.90
52725;DHT22;38621;52.830;6.914;2023-04-06T08:20:39;7.30;99.90
52725;DHT22;38621;52.830;6.914;2023-04-06T08:23:05;7.40;99.90
52725;DHT22;38621;52.830;6.914;2023-04-06T08:25:34;7.60;99.90
52725;DHT22;38621;52.830;6.914;2023-04-06T08:28:01;7.70;99.90
52725;DHT22;38621;52.830;6.914;2023-04-06T08:30:26;7.80;99.90
52725;DHT22;38621;52.830;6.914;2023-04-06T08:32:52;8.00;99.90
52725;DHT22;38621;52.830;6.914;2023-04-06T08:35:18;8.10;99.90
52725;DHT22;38621;52.830;6.914;2023-04-06T08:37:44;8.00;99.90
52725;DHT22;38621;52.830;6.914;2023-04-06T08:40:10;8.20;99.90
52725;DHT22;38621;52.830;6.914;2023-04-06T08:42:40;8.30;99.90
52725;DHT22;38621;52.830;6.914;2023-04-06T08:45:09;8.50;99.90
52725;DHT22;38621;52.830;6.914;2023-04-06T08:47:36;8.60;99.90
52725;DHT22;38621;52.830;6.914;2023-04-06T08:50:05;8.80;99.90
52725;DHT22;38621;52.830;6.914;2023-04-06T08:52:32;8.90;99.90
52725;DHT22;38621;52.830;6.914;2023-04-06T08:54:59;9.10;99.90
52725;DHT22;38621;52.830;6.914;2023-04-06T08:57:25;9.20;99.90
52725;DHT22;38621;52.830;6.914;2023-04-06T08:59:52;9.40;99.90
52725;DHT22;38621;52.830;6.914;2023-04-06T09:02:19;9.50;99.90
52725;DHT22;38621;52.830;6.914;2023-04-06T09:04:48;9.60;99.90
52725;DHT22;38621;52.830;6.914;2023-04-06T09:07:16;9.80;99.90
52725;DHT22;38621;52.830;6.914;2023-04-06T09:09:42;9.90;99.90
52725;DHT22;38621;52.830;6.914;2023-04-06T09:12:30;10.00;99.90
52725;DHT22;38621;52.830;6.914;2023-04-06T09:14:56;10.10;99.90
52725;DHT22;38621;52.830;6.914;2023-04-06T09:17:27;10.20;99.90
52725;DHT22;38621;52.830;6.914;2023-04-06T09:19:53;10.40;99.90
52725;DHT22;38621;52.830;6.914;2023-04-06T09:22:20;10.50;99.90
52725;DHT22;38621;52.830;6.914;2023-04-06T09:24:50;10.40;99.90
52725;DHT22;38621;52.830;6.914;2023-04-06T09:27:17;10.50;99.90
52725;DHT22;38621;52.830;6.914;2023-04-06T09:29:44;10.50;99.90
52725;DHT22;38621;52.830;6.914;2023-04-06T09:32:11;10.60;99.90
52725;DHT22;38621;52.830;6.914;2023-04-06T09:34:40;10.90;99.90
52725;DHT22;38621;52.830;6.914;2023-04-06T09:37:32;11.20;99.90
52725;DHT22;38621;52.830;6.914;2023-04-06T09:40:05;11.50;99.90
52725;DHT22;38621;52.830;6.914;2023-04-06T09:42:31;11.90;99.90
52725;DHT22;38621;52.830;6.914;2023-04-06T09:44:57;12.10;99.90
52725;DHT22;38621;52.830;6.914;2023-04-06T09:47:23;12.10;99.90
52725;DHT22;38621;52.830;6.914;2023-04-06T09:49:50;12.00;99.90
52725;DHT22;38621;52.830;6.914;2023-04-06T09:52:20;11.90;99.90
52725;DHT22;38621;52.830;6.914;2023-04-06T09:54:50;11.80;99.90
52725;DHT22;38621;52.830;6.914;2023-04-06T09:57:45;11.70;99.90
52725;DHT22;38621;52.830;6.914;2023-04-06T10:00:17;11.70;99.90
52725;DHT22;38621;52.830;6.914;2023-04-06T10:06:01;11.60;99.90
52725;DHT22;38621;52.830;6.914;2023-04-06T10:08:32;11.50;99.90
52725;DHT22;38621;52.830;6.914;2023-04-06T10:10:59;11.50;99.90
52725;DHT22;38621;52.830;6.914;2023-04-06T10:13:26;11.60;99.90
52725;DHT22;38621;52.830;6.914;2023-04-06T10:15:52;11.60;99.90
52725;DHT22;38621;52.830;6.914;2023-04-06T10:18:18;11.50;99.90
52725;DHT22;38621;52.830;6.914;2023-04-06T10:20:55;11.50;99.90
52725;DHT22;38621;52.830;6.914;2023-04-06T10:23:58;11.60;99.90
52725;DHT22;38621;52.830;6.914;2023-04-06T10:26:24;11.60;99.90
52725;DHT22;38621;52.830;6.914;2023-04-06T10:28:51;11.70;99.90
52725;DHT22;38621;52.830;6.914;2023-04-06T10:31:25;11.90;99.90
52725;DHT22;38621;52.830;6.914;2023-04-06T10:33:59;12.00;99.90
52725;DHT22;38621;52.830;6.914;2023-04-06T10:36:26;12.00;99.90
52725;DHT22;38621;52.830;6.914;2023-04-06T10:38:58;12.00;99.90
52725;DHT22;38621;52.830;6.914;2023-04-06T10:41:34;12.30;99.90
52725;DHT22;38621;52.830;6.914;2023-04-06T10:44:00;12.50;99.90
52725;DHT22;38621;52.830;6.914;2023-04-06T10:46:30;12.50;99.90
52725;DHT22;38621;52.830;6.914;2023-04-06T10:48:56;12.50;99.90
52725;DHT22;38621;52.830;6.914;2023-04-06T10:51:28;12.50;99.90
52725;DHT22;38621;52.830;6.914;2023-04-06T10:53:54;12.40;99.90
52725;DHT22;38621;52.830;6.914;2023-04-06T10:56:24;12.40;99.90
52725;DHT22;38621;52.830;6.914;2023-04-06T10:58:54;12.40;99.90
52725;DHT22;38621;52.830;6.914;2023-04-06T11:01:24;12.40;99.90
52725;DHT22;38621;52.830;6.914;2023-04-06T11:03:54;12.60;99.90
52725;DHT22;38621;52.830;6.914;2023-04-06T11:06:24;12.80;99.90
52725;DHT22;38621;52.830;6.914;2023-04-06T11:08:51;13.00;99.90
52725;DHT22;38621;52.830;6.914;2023-04-06T11:11:18;13.00;99.90
52725;DHT22;38621;52.830;6.914;2023-04-06T11:13:50;13.10;99.90
52725;DHT22;38621;52.830;6.914;2023-04-06T11:16:27;13.20;99.90
52725;DHT22;38621;52.830;6.914;2023-04-06T11:18:57;13.30;99.90
52725;DHT22;38621;52.830;6.914;2023-04-06T11:24:11;13.40;99.90
52725;DHT22;38621;52.830;6.914;2023-04-06T11:26:45;13.60;99.90
52725;DHT22;38621;52.830;6.914;2023-04-06T11:29:25;13.80;99.90
52725;DHT22;38621;52.830;6.914;2023-04-06T11:31:54;13.90;99.90
52725;DHT22;38621;52.830;6.914;2023-04-06T11:34:24;13.90;99.90
52725;DHT22;38621;52.830;6.914;2023-04-06T11:37:01;13.80;99.90
52725;DHT22;38621;52.830;6.914;2023-04-06T11:39:28;13.50;99.90
52725;DHT22;38621;52.830;6.914;2023-04-06T11:41:58;13.40;99.90
52725;DHT22;38621;52.830;6.914;2023-04-06T11:44:38;13.50;99.90
52725;DHT22;38621;52.830;6.914;2023-04-06T11:47:09;13.60;99.90
52725;DHT22;38621;52.830;6.914;2023-04-06T11:49:43;13.70;99.90
52725;DHT22;38621;52.830;6.914;2023-04-06T11:52:24;13.70;99.90
52725;DHT22;38621;52.830;6.914;2023-04-06T11:54:52;13.70;99.90
52725;DHT22;38621;52.830;6.914;2023-04-06T11:57:19;13.80;99.90
52725;DHT22;38621;52.830;6.914;2023-04-06T11:59:45;13.90;99.90
52725;DHT22;38621;52.830;6.914;2023-04-06T12:02:11;14.20;99.90
52725;DHT22;38621;52.830;6.914;2023-04-06T12:04:37;14.10;99.90
52725;DHT22;38621;52.830;6.914;2023-04-06T12:07:04;14.10;99.90
52725;DHT22;38621;52.830;6.914;2023-04-06T12:09:30;14.00;99.90
52725;DHT22;38621;52.830;6.914;2023-04-06T12:11:56;13.90;99.90
52725;DHT22;38621;52.830;6.914;2023-04-06T12:14:22;13.70;99.90
52725;DHT22;38621;52.830;6.914;2023-04-06T12:16:48;13.60;99.90
52725;DHT22;38621;52.830;6.914;2023-04-06T12:19:14;13.50;99.90
52725;DHT22;38621;52.830;6.914;2023-04-06T12:21:40;13.60;99.90
52725;DHT22;38621;52.830;6.914;2023-04-06T12:24:06;13.70;99.90
52725;DHT22;38621;52.830;6.914;2023-04-06T12:26:32;13.60;99.90
52725;DHT22;38621;52.830;6.914;2023-04-06T12:28:59;13.50;99.90
52725;DHT22;38621;52.830;6.914;2023-04-06T12:31:34;13.40;99.90
52725;DHT22;38621;52.830;6.914;2023-04-06T12:34:00;13.50;99.90
52725;DHT22;38621;52.830;6.914;2023-04-06T12:36:27;13.60;99.90
52725;DHT22;38621;52.830;6.914;2023-04-06T12:38:53;13.80;99.90
52725;DHT22;38621;52.830;6.914;2023-04-06T12:41:19;14.00;99.90
52725;DHT22;38621;52.830;6.914;2023-04-06T12:43:46;14.20;99.90
52725;DHT22;38621;52.830;6.914;2023-04-06T12:46:12;14.00;99.90
52725;DHT22;38621;52.830;6.914;2023-04-06T12:48:38;13.90;99.90
52725;DHT22;38621;52.830;6.914;2023-04-06T12:51:05;13.90;99.90
52725;DHT22;38621;52.830;6.914;2023-04-06T12:53:32;14.00;99.90
52725;DHT22;38621;52.830;6.914;2023-04-06T12:55:58;14.00;99.90
52725;DHT22;38621;52.830;6.914;2023-04-06T12:58:25;13.90;99.90
52725;DHT22;38621;52.830;6.914;2023-04-06T13:00:55;13.90;99.90
52725;DHT22;38621;52.830;6.914;2023-04-06T13:03:21;13.80;99.90
52725;DHT22;38621;52.830;6.914;2023-04-06T13:05:48;13.80;99.90
52725;DHT22;38621;52.830;6.914;2023-04-06T13:08:15;13.80;99.90
52725;DHT22;38621;52.830;6.914;2023-04-06T13:10:48;13.80;99.90
52725;DHT22;38621;52.830;6.914;2023-04-06T13:13:15;13.80;99.90
52725;DHT22;38621;52.830;6.914;2023-04-06T13:15:40;13.70;99.90
52725;DHT22;38621;52.830;6.914;2023-04-06T13:18:07;13.80;99.90
52725;DHT22;38621;52.830;6.914;2023-04-06T13:20:33;14.00;99.90
52725;DHT22;38621;52.830;6.914;2023-04-06T13:22:59;14.10;99.90
52725;DHT22;38621;52.830;6.914;2023-04-06T13:25:25;14.20;99.90
52725;DHT22;38621;52.830;6.914;2023-04-06T13:27:50;14.20;99.90
52725;DHT22;38621;52.830;6.914;2023-04-06T13:30:16;14.10;99.90
52725;DHT22;38621;52.830;6.914;2023-04-06T13:32:42;14.10;99.90
52725;DHT22;38621;52.830;6.914;2023-04-06T13:35:09;14.00;99.90
52725;DHT22;38621;52.830;6.914;2023-04-06T13:37:35;13.80;99.90
52725;DHT22;38621;52.830;6.914;2023-04-06T13:40:02;13.70;99.90
52725;DHT22;38621;52.830;6.914;2023-04-06T13:42:28;13.60;99.90
52725;DHT22;38621;52.830;6.914;2023-04-06T13:44:54;13.60;99.90
52725;DHT22;38621;52.830;6.914;2023-04-06T13:47:20;13.60;99.90
52725;DHT22;38621;52.830;6.914;2023-04-06T13:49:51;13.60;99.90
52725;DHT22;38621;52.830;6.914;2023-04-06T13:52:18;13.60;99.90
52725;DHT22;38621;52.830;6.914;2023-04-06T13:54:44;13.60;99.90
52725;DHT22;38621;52.830;6.914;2023-04-06T13:57:16;13.70;99.90
52725;DHT22;38621;52.830;6.914;2023-04-06T13:59:42;13.80;99.90
52725;DHT22;38621;52.830;6.914;2023-04-06T14:02:09;13.90;99.90
52725;DHT22;38621;52.830;6.914;2023-04-06T14:04:35;13.90;99.90
52725;DHT22;38621;52.830;6.914;2023-04-06T14:07:01;13.90;99.90
52725;DHT22;38621;52.830;6.914;2023-04-06T14:09:28;13.90;99.90
52725;DHT22;38621;52.830;6.914;2023-04-06T14:11:54;13.90;99.90
52725;DHT22;38621;52.830;6.914;2023-04-06T14:14:20;13.80;99.90
52725;DHT22;38621;52.830;6.914;2023-04-06T14:16:46;13.60;99.90
52725;DHT22;38621;52.830;6.914;2023-04-06T14:19:14;13.30;99.90
52725;DHT22;38621;52.830;6.914;2023-04-06T14:21:41;13.20;99.90
52725;DHT22;38621;52.830;6.914;2023-04-06T14:24:08;13.00;99.90
52725;DHT22;38621;52.830;6.914;2023-04-06T14:26:35;12.80;99.90
52725;DHT22;38621;52.830;6.914;2023-04-06T14:29:01;12.60;99.90
52725;DHT22;38621;52.830;6.914;2023-04-06T14:31:27;12.50;99.90
52725;DHT22;38621;52.830;6.914;2023-04-06T14:33:53;12.40;99.90
52725;DHT22;38621;52.830;6.914;2023-04-06T14:36:19;12.40;99.90
52725;DHT22;38621;52.830;6.914;2023-04-06T14:38:44;12.40;99.90
52725;DHT22;38621;52.830;6.914;2023-04-06T14:41:19;12.40;99.90
52725;DHT22;38621;52.830;6.914;2023-04-06T14:43:46;12.30;99.90
52725;DHT22;38621;52.830;6.914;2023-04-06T14:46:13;12.30;99.90
52725;DHT22;38621;52.830;6.914;2023-04-06T14:48:38;12.30;99.90
52725;DHT22;38621;52.830;6.914;2023-04-06T14:51:05;12.30;99.90
52725;DHT22;38621;52.830;6.914;2023-04-06T14:53:31;12.30;99.90
52725;DHT22;38621;52.830;6.914;2023-04-06T14:55:57;12.30;99.90
52725;DHT22;38621;52.830;6.914;2023-04-06T14:58:23;12.20;99.90
52725;DHT22;38621;52.830;6.914;2023-04-06T15:00:55;12.10;99.90
52725;DHT22;38621;52.830;6.914;2023-04-06T15:03:21;12.10;99.90
52725;DHT22;38621;52.830;6.914;2023-04-06T15:05:47;11.90;99.90
52725;DHT22;38621;52.830;6.914;2023-04-06T15:08:13;11.80;99.90
52725;DHT22;38621;52.830;6.914;2023-04-06T15:10:40;11.70;99.90
52725;DHT22;38621;52.830;6.914;2023-04-06T15:13:06;11.70;99.90
52725;DHT22;38621;52.830;6.914;2023-04-06T15:15:31;11.60;99.90
52725;DHT22;38621;52.830;6.914;2023-04-06T15:17:57;11.60;99.90
52725;DHT22;38621;52.830;6.914;2023-04-06T15:20:23;11.50;99.90
52725;DHT22;38621;52.830;6.914;2023-04-06T15:22:49;11.50;99.90
52725;DHT22;38621;52.830;6.914;2023-04-06T15:25:14;11.50;99.90
52725;DHT22;38621;52.830;6.914;2023-04-06T15:27:41;11.50;99.90
52725;DHT22;38621;52.830;6.914;2023-04-06T15:30:07;11.50;99.90
52725;DHT22;38621;52.830;6.914;2023-04-06T15:32:32;11.50;99.90
52725;DHT22;38621;52.830;6.914;2023-04-06T15:34:59;11.60;99.90
52725;DHT22;38621;52.830;6.914;2023-04-06T15:37:25;11.70;99.90
52725;DHT22;38621;52.830;6.914;2023-04-06T15:39:51;11.70;99.90
52725;DHT22;38621;52.830;6.914;2023-04-06T15:42:17;11.70;99.90
52725;DHT22;38621;52.830;6.914;2023-04-06T15:44:43;11.60;99.90